sensor_id;sensor_type;location;lat;lon;timestamp;temperature;humidity
7694;DHT22;3889;48.162;11.510;2022-09-09T00:00:38;15.30;99.90
7694;DHT22;3889;48.162;11.510;2022-09-09T00:03:12;15.30;99.90
7694;DHT22;3889;48.162;11.510;2022-09-09T00:05:46;15.30;99.90
7694;DHT22;3889;48.162;11.510;2022-09-09T00:08:20;15.20;99.90
7694;DHT22;3889;48.162;11.510;2022-09-09T00:10:53;15.30;99.90
7694;DHT22;3889;48.162;11.510;2022-09-09T00:13:30;15.30;99.90
7694;DHT22;3889;48.162;11.510;2022-09-09T00:16:05;15.30;99.90
7694;DHT22;3889;48.162;11.510;2022-09-09T00:18:50;15.20;99.90
7694;DHT22;3889;48.162;11.510;2022-09-09T00:21:22;15.30;99.90
7694;DHT22;3889;48.162;11.510;2022-09-09T00:23:54;15.30;99.90
7694;DHT22;3889;48.162;11.510;2022-09-09T00:26:29;15.20;99.90
7694;DHT22;3889;48.162;11.510;2022-09-09T00:29:05;15.20;99.90
7694;DHT22;3889;48.162;11.510;2022-09-09T00:31:36;15.20;99.90
7694;DHT22;3889;48.162;11.510;2022-09-09T00:34:11;15.20;99.90
7694;DHT22;3889;48.162;11.510;2022-09-09T00:36:40;15.20;99.90
7694;DHT22;3889;48.162;11.510;2022-09-09T00:39:12;15.20;99.90
7694;DHT22;3889;48.162;11.510;2022-09-09T00:41:50;15.10;99.90
7694;DHT22;3889;48.162;11.510;2022-09-09T00:44:30;15.10;99.90
7694;DHT22;3889;48.162;11.510;2022-09-09T00:47:24;15.10;99.90
7694;DHT22;3889;48.162;11.510;2022-09-09T00:50:00;15.10;99.90
7694;DHT22;3889;48.162;11.510;2022-09-09T00:52:38;15.10;99.90
7694;DHT22;3889;48.162;11.510;2022-09-09T00:55:14;15.00;99.90
7694;DHT22;3889;48.162;11.510;2022-09-09T00:57:46;15.00;99.90
7694;DHT22;3889;48.162;11.510;2022-09-09T01:00:23;15.10;99.90
7694;DHT22;3889;48.162;11.510;2022-09-09T01:02:59;15.10;99.90
7694;DHT22;3889;48.162;11.510;2022-09-09T01:05:34;15.00;99.90
7694;DHT22;3889;48.162;11.510;2022-09-09T01:08:09;14.90;99.90
7694;DHT22;3889;48.162;11.510;2022-09-09T01:10:43;14.80;99.90
7694;DHT22;3889;48.162;11.510;2022-09-09T01:13:19;14.80;99.90
7694;DHT22;3889;48.162;11.510;2022-09-09T01:15:50;14.80;99.90
7694;DHT22;3889;48.162;11.510;2022-09-09T01:18:26;14.80;99.90
7694;DHT22;3889;48.162;11.510;2022-09-09T01:21:01;14.80;99.90
7694;DHT22;3889;48.162;11.510;2022-09-09T01:23:42;14.70;99.90
7694;DHT22;3889;48.162;11.510;2022-09-09T01:26:27;14.80;99.90
7694;DHT22;3889;48.162;11.510;2022-09-09T01:28:55;14.80;99.90
7694;DHT22;3889;48.162;11.510;2022-09-09T01:31:28;14.80;99.90
7694;DHT22;3889;48.162;11.510;2022-09-09T01:33:57;14.80;99.90
7694;DHT22;3889;48.162;11.510;2022-09-09T01:36:35;14.80;99.90
7694;DHT22;3889;48.162;11.510;2022-09-09T01:39:05;14.80;99.90
7694;DHT22;3889;48.162;11.510;2022-09-09T01:41:35;14.80;99.90
7694;DHT22;3889;48.162;11.510;2022-09-09T01:44:02;14.80;99.90
7694;DHT22;3889;48.162;11.510;2022-09-09T01:46:30;14.80;99.90
7694;DHT22;3889;48.162;11.510;2022-09-09T01:48:59;14.80;99.90
7694;DHT22;3889;48.162;11.510;2022-09-09T01:51:28;14.80;99.90
7694;DHT22;3889;48.162;11.510;2022-09-09T01:53:56;14.80;99.90
7694;DHT22;3889;48.162;11.510;2022-09-09T01:56:33;14.70;99.90
7694;DHT22;3889;48.162;11.510;2022-09-09T01:59:17;14.60;99.90
7694;DHT22;3889;48.162;11.510;2022-09-09T02:02:04;14.60;99.90
7694;DHT22;3889;48.162;11.510;2022-09-09T02:04:38;14.60;99.90
7694;DHT22;3889;48.162;11.510;2022-09-09T02:07:14;14.50;99.90
7694;DHT22;3889;48.162;11.510;2022-09-09T02:09:47;14.50;99.90
7694;DHT22;3889;48.162;11.510;2022-09-09T02:12:19;14.50;99.90
7694;DHT22;3889;48.162;11.510;2022-09-09T02:14:56;14.60;99.90
7694;DHT22;3889;48.162;11.510;2022-09-09T02:17:28;14.50;99.90
7694;DHT22;3889;48.162;11.510;2022-09-09T02:20:03;14.50;99.90
7694;DHT22;3889;48.162;11.510;2022-09-09T02:22:34;14.40;99.90
7694;DHT22;3889;48.162;11.510;2022-09-09T02:25:04;14.40;99.90
7694;DHT22;3889;48.162;11.510;2022-09-09T02:27:32;14.40;99.90
7694;DHT22;3889;48.162;11.510;2022-09-09T02:30:03;14.40;99.90
7694;DHT22;3889;48.162;11.510;2022-09-09T02:32:34;14.30;99.90
7694;DHT22;3889;48.162;11.510;2022-09-09T02:35:06;14.40;99.90
7694;DHT22;3889;48.162;11.510;2022-09-09T02:37:38;14.50;99.90
7694;DHT22;3889;48.162;11.510;2022-09-09T02:40:08;14.40;99.90
7694;DHT22;3889;48.162;11.510;2022-09-09T02:42:39;14.40;99.90
7694;DHT22;3889;48.162;11.510;2022-09-09T02:45:10;14.40;99.90
7694;DHT22;3889;48.162;11.510;2022-09-09T02:47:41;14.40;99.90
7694;DHT22;3889;48.162;11.510;2022-09-09T02:50:17;14.40;99.90
7694;DHT22;3889;48.162;11.510;2022-09-09T02:52:56;14.30;99.90
7694;DHT22;3889;48.162;11.510;2022-09-09T02:55:36;14.40;99.90
7694;DHT22;3889;48.162;11.510;2022-09-09T02:58:07;14.30;99.90
7694;DHT22;3889;48.162;11.510;2022-09-09T03:00:38;14.30;99.90
7694;DHT22;3889;48.162;11.510;2022-09-09T03:03:07;14.30;99.90
7694;DHT22;3889;48.162;11.510;2022-09-09T03:05:36;14.30;99.90
7694;DHT22;3889;48.162;11.510;2022-09-09T03:08:05;14.30;99.90
7694;DHT22;3889;48.162;11.510;2022-09-09T03:10:33;14.30;99.90
7694;DHT22;3889;48.162;11.510;2022-09-09T03:13:01;14.40;99.90
7694;DHT22;3889;48.162;11.510;2022-09-09T03:15:31;14.40;99.90
7694;DHT22;3889;48.162;11.510;2022-09-09T03:18:00;14.50;99.90
7694;DHT22;3889;48.162;11.510;2022-09-09T03:20:29;14.50;99.90
7694;DHT22;3889;48.162;11.510;2022-09-09T03:22:58;14.50;99.90
7694;DHT22;3889;48.162;11.510;2022-09-09T03:25:26;14.50;99.90
7694;DHT22;3889;48.162;11.510;2022-09-09T03:27:55;14.60;99.90
7694;DHT22;3889;48.162;11.510;2022-09-09T03:30:25;14.50;99.90
7694;DHT22;3889;48.162;11.510;2022-09-09T03:32:53;14.50;99.90
7694;DHT22;3889;48.162;11.510;2022-09-09T03:35:23;14.50;99.90
7694;DHT22;3889;48.162;11.510;2022-09-09T03:37:51;14.50;99.90
7694;DHT22;3889;48.162;11.510;2022-09-09T03:40:19;14.60;99.90
7694;DHT22;3889;48.162;11.510;2022-09-09T03:42:47;14.60;99.90
7694;DHT22;3889;48.162;11.510;2022-09-09T03:45:15;14.60;99.90
7694;DHT22;3889;48.162;11.510;2022-09-09T03:47:43;14.50;99.90
7694;DHT22;3889;48.162;11.510;2022-09-09T03:50:11;14.60;99.90
7694;DHT22;3889;48.162;11.510;2022-09-09T03:52:41;14.50;99.90
7694;DHT22;3889;48.162;11.510;2022-09-09T03:55:09;14.50;99.90
7694;DHT22;3889;48.162;11.510;2022-09-09T03:57:37;14.50;99.90
7694;DHT22;3889;48.162;11.510;2022-09-09T04:00:07;14.50;99.90
7694;DHT22;3889;48.162;11.510;2022-09-09T04:02:35;14.60;99.90
7694;DHT22;3889;48.162;11.510;2022-09-09T04:05:04;14.60;99.90
7694;DHT22;3889;48.162;11.510;2022-09-09T04:07:33;14.60;99.90
7694;DHT22;3889;48.162;11.510;2022-09-09T04:10:02;14.60;99.90
7694;DHT22;3889;48.162;11.510;2022-09-09T04:12:30;14.70;99.90
7694;DHT22;3889;48.162;11.510;2022-09-09T04:14:58;14.80;99.90
7694;DHT22;3889;48.162;11.510;2022-09-09T04:17:27;14.80;99.90
7694;DHT22;3889;48.162;11.510;2022-09-09T04:19:55;14.90;99.90
7694;DHT22;3889;48.162;11.510;2022-09-09T04:22:23;14.90;99.90
7694;DHT22;3889;48.162;11.510;2022-09-09T04:24:51;15.00;99.90
7694;DHT22;3889;48.162;11.510;2022-09-09T04:27:20;15.00;99.90
7694;DHT22;3889;48.162;11.510;2022-09-09T04:29:48;15.00;99.90
7694;DHT22;3889;48.162;11.510;2022-09-09T04:32:15;15.00;99.90
7694;DHT22;3889;48.162;11.510;2022-09-09T04:34:44;14.90;99.90
7694;DHT22;3889;48.162;11.510;2022-09-09T04:37:14;14.90;99.90
7694;DHT22;3889;48.162;11.510;2022-09-09T04:39:42;14.90;99.90
7694;DHT22;3889;48.162;11.510;2022-09-09T04:42:10;14.80;99.90
7694;DHT22;3889;48.162;11.510;2022-09-09T04:44:39;14.80;99.90
7694;DHT22;3889;48.162;11.510;2022-09-09T04:47:07;14.80;99.90
7694;DHT22;3889;48.162;11.510;2022-09-09T04:49:36;14.70;99.90
7694;DHT22;3889;48.162;11.510;2022-09-09T04:52:04;14.60;99.90
7694;DHT22;3889;48.162;11.510;2022-09-09T04:54:32;14.70;99.90
7694;DHT22;3889;48.162;11.510;2022-09-09T04:57:00;14.60;99.90
7694;DHT22;3889;48.162;11.510;2022-09-09T04:59:28;14.50;99.90
7694;DHT22;3889;48.162;11.510;2022-09-09T05:01:58;14.50;99.90
7694;DHT22;3889;48.162;11.510;2022-09-09T05:04:27;14.50;99.90
7694;DHT22;3889;48.162;11.510;2022-09-09T05:06:56;14.50;99.90
7694;DHT22;3889;48.162;11.510;2022-09-09T05:09:23;14.50;99.90
7694;DHT22;3889;48.162;11.510;2022-09-09T05:11:51;14.50;99.90
7694;DHT22;3889;48.162;11.510;2022-09-09T05:14:19;14.50;99.90
7694;DHT22;3889;48.162;11.510;2022-09-09T05:16:47;14.40;99.90
7694;DHT22;3889;48.162;11.510;2022-09-09T05:19:17;14.50;99.90
7694;DHT22;3889;48.162;11.510;2022-09-09T05:21:46;14.50;99.90
7694;DHT22;3889;48.162;11.510;2022-09-09T05:24:14;14.40;99.90
7694;DHT22;3889;48.162;11.510;2022-09-09T05:26:42;14.40;99.90
7694;DHT22;3889;48.162;11.510;2022-09-09T05:29:10;14.40;99.90
7694;DHT22;3889;48.162;11.510;2022-09-09T05:31:38;14.30;99.90
7694;DHT22;3889;48.162;11.510;2022-09-09T05:34:08;14.40;99.90
7694;DHT22;3889;48.162;11.510;2022-09-09T05:36:37;14.30;99.90
7694;DHT22;3889;48.162;11.510;2022-09-09T05:39:04;14.30;99.90
7694;DHT22;3889;48.162;11.510;2022-09-09T05:41:33;14.40;99.90
7694;DHT22;3889;48.162;11.510;2022-09-09T05:44:02;14.50;99.90
7694;DHT22;3889;48.162;11.510;2022-09-09T05:46:30;14.50;99.90
7694;DHT22;3889;48.162;11.510;2022-09-09T05:48:57;14.60;99.90
7694;DHT22;3889;48.162;11.510;2022-09-09T05:51:27;14.60;99.90
7694;DHT22;3889;48.162;11.510;2022-09-09T05:53:57;14.60;99.90
7694;DHT22;3889;48.162;11.510;2022-09-09T05:56:27;14.70;99.90
7694;DHT22;3889;48.162;11.510;2022-09-09T05:58:56;14.80;99.90
7694;DHT22;3889;48.162;11.510;2022-09-09T06:01:25;14.80;99.90
7694;DHT22;3889;48.162;11.510;2022-09-09T06:03:54;14.90;99.90
7694;DHT22;3889;48.162;11.510;2022-09-09T06:06:24;15.00;99.90
7694;DHT22;3889;48.162;11.510;2022-09-09T06:08:55;15.00;99.90
7694;DHT22;3889;48.162;11.510;2022-09-09T06:11:26;15.10;99.90
7694;DHT22;3889;48.162;11.510;2022-09-09T06:13:54;15.20;99.90
7694;DHT22;3889;48.162;11.510;2022-09-09T06:16:24;15.20;99.90
7694;DHT22;3889;48.162;11.510;2022-09-09T06:18:52;15.20;99.90
7694;DHT22;3889;48.162;11.510;2022-09-09T06:21:22;15.30;99.90
7694;DHT22;3889;48.162;11.510;2022-09-09T06:23:50;15.30;99.90
7694;DHT22;3889;48.162;11.510;2022-09-09T06:26:28;15.40;99.90
7694;DHT22;3889;48.162;11.510;2022-09-09T06:28:58;15.50;99.90
7694;DHT22;3889;48.162;11.510;2022-09-09T06:31:27;15.50;99.90
7694;DHT22;3889;48.162;11.510;2022-09-09T06:33:58;15.60;99.90
7694;DHT22;3889;48.162;11.510;2022-09-09T06:36:27;15.60;99.90
7694;DHT22;3889;48.162;11.510;2022-09-09T06:38:56;15.70;99.90
7694;DHT22;3889;48.162;11.510;2022-09-09T06:41:27;15.70;99.90
7694;DHT22;3889;48.162;11.510;2022-09-09T06:43:58;15.80;99.90
7694;DHT22;3889;48.162;11.510;2022-09-09T06:46:36;15.80;99.90
7694;DHT22;3889;48.162;11.510;2022-09-09T06:49:04;15.90;99.90
7694;DHT22;3889;48.162;11.510;2022-09-09T06:51:34;15.90;99.90
7694;DHT22;3889;48.162;11.510;2022-09-09T06:54:03;15.90;99.90
7694;DHT22;3889;48.162;11.510;2022-09-09T06:56:35;16.00;99.90
7694;DHT22;3889;48.162;11.510;2022-09-09T06:59:04;16.00;99.90
7694;DHT22;3889;48.162;11.510;2022-09-09T07:01:35;16.10;99.90
7694;DHT22;3889;48.162;11.510;2022-09-09T07:04:04;16.10;99.90
7694;DHT22;3889;48.162;11.510;2022-09-09T07:06:36;16.10;99.90
7694;DHT22;3889;48.162;11.510;2022-09-09T07:09:05;16.10;99.90
7694;DHT22;3889;48.162;11.510;2022-09-09T07:11:38;16.10;99.90
7694;DHT22;3889;48.162;11.510;2022-09-09T07:14:08;16.00;99.90
7694;DHT22;3889;48.162;11.510;2022-09-09T07:16:39;16.00;99.90
7694;DHT22;3889;48.162;11.510;2022-09-09T07:19:07;16.00;99.90
7694;DHT22;3889;48.162;11.510;2022-09-09T07:21:34;16.00;99.90
7694;DHT22;3889;48.162;11.510;2022-09-09T07:24:03;16.00;99.90
7694;DHT22;3889;48.162;11.510;2022-09-09T07:26:33;16.00;99.90
7694;DHT22;3889;48.162;11.510;2022-09-09T07:29:03;16.10;99.90
7694;DHT22;3889;48.162;11.510;2022-09-09T07:31:43;16.10;99.90
7694;DHT22;3889;48.162;11.510;2022-09-09T07:34:26;16.20;99.90
7694;DHT22;3889;48.162;11.510;2022-09-09T07:36:55;16.20;99.90
7694;DHT22;3889;48.162;11.510;2022-09-09T07:39:23;16.30;99.90
7694;DHT22;3889;48.162;11.510;2022-09-09T07:41:51;16.30;99.90
7694;DHT22;3889;48.162;11.510;2022-09-09T07:44:23;16.50;99.90
7694;DHT22;3889;48.162;11.510;2022-09-09T07:46:53;16.50;99.90
7694;DHT22;3889;48.162;11.510;2022-09-09T07:49:21;16.60;99.90
7694;DHT22;3889;48.162;11.510;2022-09-09T07:51:56;16.60;99.90
7694;DHT22;3889;48.162;11.510;2022-09-09T07:54:24;16.70;99.90
7694;DHT22;3889;48.162;11.510;2022-09-09T07:56:52;16.70;99.90
7694;DHT22;3889;48.162;11.510;2022-09-09T07:59:22;16.80;99.90
7694;DHT22;3889;48.162;11.510;2022-09-09T08:01:51;16.90;99.90
7694;DHT22;3889;48.162;11.510;2022-09-09T08:04:22;16.90;99.90
7694;DHT22;3889;48.162;11.510;2022-09-09T08:06:51;17.00;99.90
7694;DHT22;3889;48.162;11.510;2022-09-09T08:09:20;17.10;99.90
7694;DHT22;3889;48.162;11.510;2022-09-09T08:11:51;17.20;99.90
7694;DHT22;3889;48.162;11.510;2022-09-09T08:14:19;17.30;99.90
7694;DHT22;3889;48.162;11.510;2022-09-09T08:16:49;17.40;99.90
7694;DHT22;3889;48.162;11.510;2022-09-09T08:19:17;17.40;99.90
7694;DHT22;3889;48.162;11.510;2022-09-09T08:21:45;17.40;99.90
7694;DHT22;3889;48.162;11.510;2022-09-09T08:24:13;17.40;99.90
7694;DHT22;3889;48.162;11.510;2022-09-09T08:26:44;17.40;99.90
7694;DHT22;3889;48.162;11.510;2022-09-09T08:29:13;17.40;99.90
7694;DHT22;3889;48.162;11.510;2022-09-09T08:31:45;17.30;99.90
7694;DHT22;3889;48.162;11.510;2022-09-09T08:34:19;17.30;99.90
7694;DHT22;3889;48.162;11.510;2022-09-09T08:36:52;17.30;99.90
7694;DHT22;3889;48.162;11.510;2022-09-09T08:39:24;17.20;99.90
7694;DHT22;3889;48.162;11.510;2022-09-09T08:45:00;17.10;99.90
7694;DHT22;3889;48.162;11.510;2022-09-09T08:47:40;17.00;99.90
7694;DHT22;3889;48.162;11.510;2022-09-09T08:50:21;17.10;99.90
7694;DHT22;3889;48.162;11.510;2022-09-09T08:52:58;17.00;99.90
7694;DHT22;3889;48.162;11.510;2022-09-09T08:55:35;17.10;99.90
7694;DHT22;3889;48.162;11.510;2022-09-09T08:58:11;17.10;99.90
7694;DHT22;3889;48.162;11.510;2022-09-09T09:00:46;17.20;99.90
7694;DHT22;3889;48.162;11.510;2022-09-09T09:03:24;17.10;99.90
7694;DHT22;3889;48.162;11.510;2022-09-09T09:06:04;17.30;99.90
7694;DHT22;3889;48.162;11.510;2022-09-09T09:08:39;17.40;99.90
7694;DHT22;3889;48.162;11.510;2022-09-09T09:11:11;17.60;99.90
7694;DHT22;3889;48.162;11.510;2022-09-09T09:13:42;17.60;99.90
7694;DHT22;3889;48.162;11.510;2022-09-09T09:16:19;17.90;99.90
7694;DHT22;3889;48.162;11.510;2022-09-09T09:18:49;18.00;99.90
7694;DHT22;3889;48.162;11.510;2022-09-09T09:21:25;18.00;99.90
7694;DHT22;3889;48.162;11.510;2022-09-09T09:23:58;18.00;99.90
7694;DHT22;3889;48.162;11.510;2022-09-09T09:26:31;18.00;99.90
7694;DHT22;3889;48.162;11.510;2022-09-09T09:29:03;18.10;99.90
7694;DHT22;3889;48.162;11.510;2022-09-09T09:31:36;18.20;99.90
7694;DHT22;3889;48.162;11.510;2022-09-09T09:34:04;18.20;99.90
7694;DHT22;3889;48.162;11.510;2022-09-09T09:36:40;18.30;99.90
7694;DHT22;3889;48.162;11.510;2022-09-09T09:39:08;18.30;99.90
7694;DHT22;3889;48.162;11.510;2022-09-09T09:41:56;18.30;99.90
7694;DHT22;3889;48.162;11.510;2022-09-09T09:44:32;18.20;99.90
7694;DHT22;3889;48.162;11.510;2022-09-09T09:47:08;18.20;99.90
7694;DHT22;3889;48.162;11.510;2022-09-09T09:49:36;18.10;99.90
7694;DHT22;3889;48.162;11.510;2022-09-09T09:52:06;17.90;99.90
7694;DHT22;3889;48.162;11.510;2022-09-09T09:54:38;17.90;99.90
7694;DHT22;3889;48.162;11.510;2022-09-09T09:57:09;17.90;99.90
7694;DHT22;3889;48.162;11.510;2022-09-09T09:59:39;17.80;99.90
7694;DHT22;3889;48.162;11.510;2022-09-09T10:02:19;17.80;99.90
7694;DHT22;3889;48.162;11.510;2022-09-09T10:05:01;17.70;99.90
7694;DHT22;3889;48.162;11.510;2022-09-09T10:07:31;17.60;99.90
7694;DHT22;3889;48.162;11.510;2022-09-09T10:09:59;17.50;99.90
7694;DHT22;3889;48.162;11.510;2022-09-09T10:12:37;17.40;99.90
7694;DHT22;3889;48.162;11.510;2022-09-09T10:15:31;17.30;99.90
7694;DHT22;3889;48.162;11.510;2022-09-09T10:18:13;17.20;99.90
7694;DHT22;3889;48.162;11.510;2022-09-09T10:20:48;17.20;99.90
7694;DHT22;3889;48.162;11.510;2022-09-09T10:23:29;17.30;99.90
7694;DHT22;3889;48.162;11.510;2022-09-09T10:26:13;17.40;99.90
7694;DHT22;3889;48.162;11.510;2022-09-09T10:28:58;17.60;99.90
7694;DHT22;3889;48.162;11.510;2022-09-09T10:31:38;17.60;99.90
7694;DHT22;3889;48.162;11.510;2022-09-09T10:34:18;17.80;99.90
7694;DHT22;3889;48.162;11.510;2022-09-09T10:36:49;17.80;99.90
7694;DHT22;3889;48.162;11.510;2022-09-09T10:39:32;17.90;99.90
7694;DHT22;3889;48.162;11.510;2022-09-09T10:42:09;18.10;99.90
7694;DHT22;3889;48.162;11.510;2022-09-09T10:44:50;18.20;99.90
7694;DHT22;3889;48.162;11.510;2022-09-09T10:50:35;18.50;99.90
7694;DHT22;3889;48.162;11.510;2022-09-09T10:53:35;18.60;99.90
7694;DHT22;3889;48.162;11.510;2022-09-09T10:56:09;18.60;99.90
7694;DHT22;3889;48.162;11.510;2022-09-09T10:58:40;18.80;99.90
7694;DHT22;3889;48.162;11.510;2022-09-09T11:01:14;18.80;99.90
7694;DHT22;3889;48.162;11.510;2022-09-09T11:03:44;19.00;99.90
7694;DHT22;3889;48.162;11.510;2022-09-09T11:06:17;19.20;99.90
7694;DHT22;3889;48.162;11.510;2022-09-09T11:08:47;19.30;99.90
7694;DHT22;3889;48.162;11.510;2022-09-09T11:11:26;19.40;99.90
7694;DHT22;3889;48.162;11.510;2022-09-09T11:14:01;19.60;99.90
7694;DHT22;3889;48.162;11.510;2022-09-09T11:16:34;20.30;99.90
7694;DHT22;3889;48.162;11.510;2022-09-09T11:19:13;20.40;99.90
7694;DHT22;3889;48.162;11.510;2022-09-09T11:21:46;20.90;99.90
7694;DHT22;3889;48.162;11.510;2022-09-09T11:24:19;21.00;99.90
7694;DHT22;3889;48.162;11.510;2022-09-09T11:26:53;21.10;99.90
7694;DHT22;3889;48.162;11.510;2022-09-09T11:32:40;20.80;99.90
7694;DHT22;3889;48.162;11.510;2022-09-09T11:35:29;20.60;99.90
7694;DHT22;3889;48.162;11.510;2022-09-09T11:41:00;20.60;99.90
7694;DHT22;3889;48.162;11.510;2022-09-09T11:43:32;20.70;99.90
7694;DHT22;3889;48.162;11.510;2022-09-09T11:46:02;20.80;99.90
7694;DHT22;3889;48.162;11.510;2022-09-09T11:48:33;20.90;99.90
7694;DHT22;3889;48.162;11.510;2022-09-09T11:51:05;20.60;99.90
7694;DHT22;3889;48.162;11.510;2022-09-09T11:53:47;20.50;99.90
7694;DHT22;3889;48.162;11.510;2022-09-09T11:56:25;20.30;99.90
7694;DHT22;3889;48.162;11.510;2022-09-09T11:58:57;19.90;99.90
7694;DHT22;3889;48.162;11.510;2022-09-09T12:01:28;19.70;99.90
7694;DHT22;3889;48.162;11.510;2022-09-09T12:04:14;19.50;99.90
7694;DHT22;3889;48.162;11.510;2022-09-09T12:06:51;19.50;99.90
7694;DHT22;3889;48.162;11.510;2022-09-09T12:09:27;19.40;99.90
7694;DHT22;3889;48.162;11.510;2022-09-09T12:12:06;19.30;99.90
7694;DHT22;3889;48.162;11.510;2022-09-09T12:14:43;19.30;99.90
7694;DHT22;3889;48.162;11.510;2022-09-09T12:17:19;19.40;99.90
7694;DHT22;3889;48.162;11.510;2022-09-09T12:19:47;19.40;99.90
7694;DHT22;3889;48.162;11.510;2022-09-09T12:22:22;19.40;99.90
7694;DHT22;3889;48.162;11.510;2022-09-09T12:24:56;19.30;99.90
7694;DHT22;3889;48.162;11.510;2022-09-09T12:27:28;19.60;99.90
7694;DHT22;3889;48.162;11.510;2022-09-09T12:30:03;19.60;99.90
7694;DHT22;3889;48.162;11.510;2022-09-09T12:32:32;19.70;99.90
7694;DHT22;3889;48.162;11.510;2022-09-09T12:35:02;19.60;99.90
7694;DHT22;3889;48.162;11.510;2022-09-09T12:37:34;19.70;99.90
7694;DHT22;3889;48.162;11.510;2022-09-09T12:40:05;19.70;99.90
7694;DHT22;3889;48.162;11.510;2022-09-09T12:42:33;20.00;99.90
7694;DHT22;3889;48.162;11.510;2022-09-09T12:45:17;20.20;99.90
7694;DHT22;3889;48.162;11.510;2022-09-09T12:47:48;20.30;99.90
7694;DHT22;3889;48.162;11.510;2022-09-09T12:50:21;20.20;99.90
7694;DHT22;3889;48.162;11.510;2022-09-09T12:52:50;20.10;99.90
7694;DHT22;3889;48.162;11.510;2022-09-09T12:55:21;20.20;99.90
7694;DHT22;3889;48.162;11.510;2022-09-09T12:57:52;20.10;99.90
7694;DHT22;3889;48.162;11.510;2022-09-09T13:00:23;20.00;99.90
7694;DHT22;3889;48.162;11.510;2022-09-09T13:02:53;19.80;99.90
7694;DHT22;3889;48.162;11.510;2022-09-09T13:05:23;19.80;99.90
7694;DHT22;3889;48.162;11.510;2022-09-09T13:08:01;19.80;99.90
7694;DHT22;3889;48.162;11.510;2022-09-09T13:10:32;19.80;99.90
7694;DHT22;3889;48.162;11.510;2022-09-09T13:13:20;19.60;99.90
7694;DHT22;3889;48.162;11.510;2022-09-09T13:15:51;19.80;99.90
7694;DHT22;3889;48.162;11.510;2022-09-09T13:18:22;19.90;99.90
7694;DHT22;3889;48.162;11.510;2022-09-09T13:20:51;20.00;99.90
7694;DHT22;3889;48.162;11.510;2022-09-09T13:23:20;20.10;99.90
7694;DHT22;3889;48.162;11.510;2022-09-09T13:25:55;20.30;99.90
7694;DHT22;3889;48.162;11.510;2022-09-09T13:28:25;20.40;99.90
7694;DHT22;3889;48.162;11.510;2022-09-09T13:31:01;20.40;99.90
7694;DHT22;3889;48.162;11.510;2022-09-09T13:33:32;20.40;99.90
7694;DHT22;3889;48.162;11.510;2022-09-09T13:36:03;20.10;99.90
7694;DHT22;3889;48.162;11.510;2022-09-09T13:38:33;20.00;99.90
7694;DHT22;3889;48.162;11.510;2022-09-09T13:41:04;20.10;99.90
7694;DHT22;3889;48.162;11.510;2022-09-09T13:43:37;20.10;99.90
7694;DHT22;3889;48.162;11.510;2022-09-09T13:46:29;20.10;99.90
7694;DHT22;3889;48.162;11.510;2022-09-09T13:48:58;20.00;99.90
7694;DHT22;3889;48.162;11.510;2022-09-09T13:51:34;20.00;99.90
7694;DHT22;3889;48.162;11.510;2022-09-09T13:54:04;19.80;99.90
7694;DHT22;3889;48.162;11.510;2022-09-09T13:56:33;19.70;99.90
7694;DHT22;3889;48.162;11.510;2022-09-09T13:59:02;19.60;99.90
7694;DHT22;3889;48.162;11.510;2022-09-09T14:01:32;19.60;99.90
7694;DHT22;3889;48.162;11.510;2022-09-09T14:04:01;19.50;99.90
7694;DHT22;3889;48.162;11.510;2022-09-09T14:06:29;19.40;99.90
7694;DHT22;3889;48.162;11.510;2022-09-09T14:08:58;19.40;99.90
7694;DHT22;3889;48.162;11.510;2022-09-09T14:11:26;19.30;99.90
7694;DHT22;3889;48.162;11.510;2022-09-09T14:13:54;19.20;99.90
7694;DHT22;3889;48.162;11.510;2022-09-09T14:16:22;19.10;99.90
7694;DHT22;3889;48.162;11.510;2022-09-09T14:18:51;19.20;99.90
7694;DHT22;3889;48.162;11.510;2022-09-09T14:21:19;19.20;99.90
7694;DHT22;3889;48.162;11.510;2022-09-09T14:23:47;19.20;99.90
7694;DHT22;3889;48.162;11.510;2022-09-09T14:26:15;19.00;99.90
7694;DHT22;3889;48.162;11.510;2022-09-09T14:28:45;19.00;99.90
7694;DHT22;3889;48.162;11.510;2022-09-09T14:31:22;19.00;99.90
7694;DHT22;3889;48.162;11.510;2022-09-09T14:33:51;19.10;99.90
7694;DHT22;3889;48.162;11.510;2022-09-09T14:36:19;19.10;99.90
7694;DHT22;3889;48.162;11.510;2022-09-09T14:38:47;19.10;99.90
7694;DHT22;3889;48.162;11.510;2022-09-09T14:41:16;19.00;99.90
7694;DHT22;3889;48.162;11.510;2022-09-09T14:43:45;19.00;99.90
7694;DHT22;3889;48.162;11.510;2022-09-09T14:46:15;18.90;99.90
7694;DHT22;3889;48.162;11.510;2022-09-09T14:48:43;18.90;99.90
7694;DHT22;3889;48.162;11.510;2022-09-09T14:51:15;18.80;99.90
7694;DHT22;3889;48.162;11.510;2022-09-09T14:53:44;18.80;99.90
7694;DHT22;3889;48.162;11.510;2022-09-09T14:56:13;18.70;99.90
7694;DHT22;3889;48.162;11.510;2022-09-09T14:58:42;18.70;99.90
7694;DHT22;3889;48.162;11.510;2022-09-09T15:01:11;18.60;99.90
7694;DHT22;3889;48.162;11.510;2022-09-09T15:03:41;18.60;99.90
7694;DHT22;3889;48.162;11.510;2022-09-09T15:06:11;18.60;99.90
7694;DHT22;3889;48.162;11.510;2022-09-09T15:08:42;18.60;99.90
7694;DHT22;3889;48.162;11.510;2022-09-09T15:11:11;18.50;99.90
7694;DHT22;3889;48.162;11.510;2022-09-09T15:13:41;18.50;99.90
7694;DHT22;3889;48.162;11.510;2022-09-09T15:16:10;18.60;99.90
7694;DHT22;3889;48.162;11.510;2022-09-09T15:18:39;18.60;99.90
7694;DHT22;3889;48.162;11.510;2022-09-09T15:21:09;18.70;99.90
7694;DHT22;3889;48.162;11.510;2022-09-09T15:23:39;18.80;99.90
7694;DHT22;3889;48.162;11.510;2022-09-09T15:26:07;18.90;99.90
7694;DHT22;3889;48.162;11.510;2022-09-09T15:28:37;19.00;99.90
7694;DHT22;3889;48.162;11.510;2022-09-09T15:31:06;19.10;99.90
7694;DHT22;3889;48.162;11.510;2022-09-09T15:33:35;19.10;99.90
7694;DHT22;3889;48.162;11.510;2022-09-09T15:36:13;19.10;99.90
7694;DHT22;3889;48.162;11.510;2022-09-09T15:38:43;19.10;99.90
7694;DHT22;3889;48.162;11.510;2022-09-09T15:41:11;19.00;99.90
7694;DHT22;3889;48.162;11.510;2022-09-09T15:43:43;19.10;99.90
7694;DHT22;3889;48.162;11.510;2022-09-09T15:46:27;19.20;99.90
7694;DHT22;3889;48.162;11.510;2022-09-09T15:48:56;19.30;99.90
7694;DHT22;3889;48.162;11.510;2022-09-09T15:51:25;19.40;99.90
7694;DHT22;3889;48.162;11.510;2022-09-09T15:54:11;19.40;99.90
7694;DHT22;3889;48.162;11.510;2022-09-09T15:56:39;19.30;99.90
7694;DHT22;3889;48.162;11.510;2022-09-09T15:59:07;19.20;99.90
7694;DHT22;3889;48.162;11.510;2022-09-09T16:01:36;19.00;99.90
7694;DHT22;3889;48.162;11.510;2022-09-09T16:04:04;18.80;99.90
7694;DHT22;3889;48.162;11.510;2022-09-09T16:06:32;18.70;99.90
7694;DHT22;3889;48.162;11.510;2022-09-09T16:09:03;18.60;99.90
7694;DHT22;3889;48.162;11.510;2022-09-09T16:11:35;18.40;99.90
7694;DHT22;3889;48.162;11.510;2022-09-09T16:14:04;18.30;99.90
7694;DHT22;3889;48.162;11.510;2022-09-09T16:16:33;18.30;99.90
7694;DHT22;3889;48.162;11.510;2022-09-09T16:19:04;18.30;99.90
7694;DHT22;3889;48.162;11.510;2022-09-09T16:21:34;18.30;99.90
7694;DHT22;3889;48.162;11.510;2022-09-09T16:24:05;18.40;99.90
7694;DHT22;3889;48.162;11.510;2022-09-09T16:26:36;18.40;99.90